Time;durP1;ratioP1;P1;durP2;ratioP2;P2;SDS_P1;SDS_P2;PMS_P1;PMS_P2;Temp;Humidity;BMP_temperature;BMP_pressure;BME280_temperature;BME280_humidity;BME280_pressure;Samples;Min_cycle;Max_cycle;Signal;HPM_P1;HPM_P2
2023/09/27 00:02:19;;;;;;;24.10;15.93;;;;;;;22.52;76.91;101744.38;5027078;27;102229;-75
2023/09/27 00:04:46;;;;;;;27.52;15.70;;;;;;;22.50;76.54;101738.25;5024413;27;97543;-74
2023/09/27 00:07:12;;;;;;;23.23;15.77;;;;;;;22.43;76.58;101742.34;5033699;27;96923;-75
2023/09/27 00:09:40;;;;;;;23.45;16.42;;;;;;;22.33;76.85;101753.84;5038976;27;96780;-75
2023/09/27 00:12:07;;;;;;;27.00;16.40;;;;;;;22.04;78.38;101748.63;5033611;27;98979;-75
2023/09/27 00:14:33;;;;;;;21.20;16.27;;;;;;;22.10;78.77;101756.28;5027812;28;98705;-74
2023/09/27 00:16:59;;;;;;;23.73;15.48;;;;;;;21.98;79.36;101749.06;5026126;27;96812;-74
2023/09/27 00:19:26;;;;;;;26.08;16.70;;;;;;;22.02;79.13;101753.25;5024373;27;97411;-74
2023/09/27 00:21:52;;;;;;;27.88;17.35;;;;;;;21.80;80.51;101751.09;5020216;27;98887;-74
2023/09/27 00:24:19;;;;;;;23.95;16.38;;;;;;;21.91;79.77;101754.91;5028923;27;100181;-74
2023/09/27 00:26:47;;;;;;;22.00;16.10;;;;;;;21.76;80.24;101756.78;5027538;27;97193;-75
2023/09/27 00:29:13;;;;;;;21.52;16.88;;;;;;;21.74;80.72;101756.88;5026712;27;96834;-74
2023/09/27 00:31:40;;;;;;;26.15;16.30;;;;;;;21.89;79.77;101752.31;5030244;27;98132;-74
2023/09/27 00:34:06;;;;;;;26.52;17.05;;;;;;;21.96;79.46;101750.09;5029780;27;98771;-75
2023/09/27 00:36:33;;;;;;;26.08;17.75;;;;;;;21.81;80.21;101749.25;5030183;27;96730;-74
2023/09/27 00:38:59;;;;;;;27.95;16.90;;;;;;;22.06;78.70;101743.13;5030386;27;97324;-74
2023/09/27 00:41:25;;;;;;;24.05;16.75;;;;;;;21.91;78.58;101746.84;5028802;27;99217;-74
2023/09/27 00:43:53;;;;;;;24.17;16.20;;;;;;;21.84;79.15;101743.69;5025627;27;98776;-75
2023/09/27 00:46:20;;;;;;;27.75;16.75;;;;;;;21.67;79.54;101743.94;5023061;27;96861;-75
2023/09/27 00:48:46;;;;;;;23.90;17.70;;;;;;;21.65;80.51;101743.19;5029026;27;96950;-75
2023/09/27 00:51:13;;;;;;;24.95;17.45;;;;;;;21.86;79.38;101748.00;5024106;27;99234;-74
2023/09/27 00:53:42;;;;;;;24.85;16.52;;;;;;;21.76;79.53;101737.97;5029697;27;98866;-74
2023/09/27 00:56:09;;;;;;;23.33;16.48;;;;;;;21.54;80.60;101745.72;5031295;27;97188;-74
2023/09/27 00:58:37;;;;;;;26.27;17.35;;;;;;;21.55;80.39;101740.22;5024802;27;96989;-74
2023/09/27 01:01:06;;;;;;;29.38;18.90;;;;;;;21.54;80.21;101733.13;5026515;27;99142;-74
2023/09/27 01:03:32;;;;;;;26.38;17.40;;;;;;;21.49;80.64;101737.94;5028316;27;96844;-74
2023/09/27 01:05:59;;;;;;;24.38;16.85;;;;;;;21.65;79.88;101725.22;5027805;27;96853;-75
2023/09/27 01:08:25;;;;;;;26.77;18.35;;;;;;;21.72;79.65;101731.06;5028421;27;96806;-75
2023/09/27 01:10:52;;;;;;;26.60;18.20;;;;;;;21.97;78.33;101736.56;5021044;27;99416;-75
2023/09/27 01:13:19;;;;;;;28.10;18.73;;;;;;;21.94;78.41;101730.47;5026783;27;99081;-74
2023/09/27 01:15:45;;;;;;;23.92;16.83;;;;;;;21.87;78.33;101724.63;5025215;27;96945;-74
2023/09/27 01:18:13;;;;;;;32.53;18.08;;;;;;;21.74;78.45;101738.06;5021587;27;97368;-75
2023/09/27 01:20:39;;;;;;;29.15;17.77;;;;;;;21.65;78.77;101736.00;5029941;27;99557;-74
2023/09/27 01:23:07;;;;;;;26.50;18.15;;;;;;;21.60;79.38;101748.00;5028792;27;98579;-74
2023/09/27 01:25:36;;;;;;;23.88;16.15;;;;;;;21.62;79.66;101748.75;5028415;27;97760;-74
2023/09/27 01:28:04;;;;;;;23.52;17.60;;;;;;;21.51;80.09;101737.84;5030159;27;96843;-75
2023/09/27 01:30:32;;;;;;;25.70;18.10;;;;;;;21.54;80.00;101738.50;5027365;27;101397;-74
2023/09/27 01:33:00;;;;;;;25.85;17.55;;;;;;;21.51;79.82;101744.09;5026428;27;97862;-75
2023/09/27 01:35:27;;;;;;;25.55;15.90;;;;;;;21.63;79.43;101742.44;5029327;27;98844;-75
2023/09/27 01:37:53;;;;;;;26.15;17.73;;;;;;;21.56;79.62;101747.34;5029456;27;96944;-75
2023/09/27 01:40:26;;;;;;;26.27;17.67;;;;;;;21.59;79.21;101743.59;5024028;27;98856;-75
2023/09/27 01:42:52;;;;;;;27.33;17.45;;;;;;;21.46;79.71;101741.69;5024679;27;98836;-75
2023/09/27 01:45:19;;;;;;;23.15;17.52;;;;;;;21.48;79.24;101744.28;5028090;27;96891;-74
2023/09/27 01:47:45;;;;;;;30.88;19.05;;;;;;;21.35;79.58;101748.72;5029602;28;98403;-75
2023/09/27 01:50:12;;;;;;;27.27;18.42;;;;;;;21.36;80.00;101742.41;5029835;27;99081;-75
2023/09/27 01:52:38;;;;;;;24.50;18.10;;;;;;;21.21;80.95;101740.69;5027751;27;97535;-74
2023/09/27 01:55:05;;;;;;;28.48;19.13;;;;;;;21.20;80.60;101742.50;5026157;27;96905;-75
2023/09/27 01:57:33;;;;;;;24.83;18.25;;;;;;;21.06;81.32;101743.38;5026101;27;98022;-75
2023/09/27 01:59:59;;;;;;;30.13;18.60;;;;;;;21.14;81.33;101747.38;5026563;27;100485;-75
2023/09/27 02:02:26;;;;;;;26.50;18.20;;;;;;;21.06;81.55;101748.75;5025142;27;99018;-75
2023/09/27 02:04:52;;;;;;;31.90;18.23;;;;;;;21.13;81.52;101743.88;5018490;27;97066;-74
2023/09/27 02:07:19;;;;;;;26.95;17.65;;;;;;;21.18;80.91;101740.91;5030109;27;96887;-75
2023/09/27 02:09:45;;;;;;;27.65;18.20;;;;;;;21.40;80.19;101738.53;5020578;27;101467;-75
2023/09/27 02:12:11;;;;;;;25.92;17.15;;;;;;;21.27;80.09;101737.59;5027996;27;98925;-75
2023/09/27 02:14:39;;;;;;;24.45;17.25;;;;;;;21.35;79.92;101733.47;5020461;27;97172;-74
2023/09/27 02:17:07;;;;;;;27.20;18.27;;;;;;;21.27;80.01;101732.22;5029478;27;96749;-75
2023/09/27 02:19:34;;;;;;;26.38;18.20;;;;;;;21.11;80.44;101734.16;5027346;27;99323;-74
2023/09/27 02:22:00;;;;;;;29.90;19.35;;;;;;;21.25;79.91;101739.56;5028300;27;98961;-74
2023/09/27 02:24:28;;;;;;;23.70;18.20;;;;;;;20.86;81.43;101738.41;5028018;27;96999;-75
2023/09/27 02:26:55;;;;;;;26.38;18.77;;;;;;;21.21;80.43;101746.94;5018804;27;96929;-75
2023/09/27 02:29:22;;;;;;;28.63;18.67;;;;;;;20.99;80.97;101744.75;5030090;28;99275;-75
2023/09/27 02:31:50;;;;;;;26.35;18.25;;;;;;;21.04;81.16;101741.75;5023870;27;98772;-75
2023/09/27 02:34:16;;;;;;;30.52;18.55;;;;;;;21.03;81.17;101745.38;5024936;27;96726;-74
2023/09/27 02:36:43;;;;;;;26.02;18.65;;;;;;;21.03;81.40;101746.25;5028926;27;96749;-75
2023/09/27 02:39:11;;;;;;;24.42;18.00;;;;;;;20.89;81.81;101748.94;5023965;27;101069;-75
2023/09/27 02:41:37;;;;;;;28.70;19.30;;;;;;;20.88;81.45;101759.78;5026677;27;97576;-75
2023/09/27 02:44:04;;;;;;;26.95;17.88;;;;;;;21.10;80.53;101752.09;5023758;27;96897;-75
2023/09/27 02:46:30;;;;;;;28.58;18.60;;;;;;;21.16;80.53;101750.88;5027784;27;96863;-74
2023/09/27 02:48:58;;;;;;;25.38;18.58;;;;;;;21.29;79.76;101754.50;5025991;27;97288;-75
2023/09/27 02:51:25;;;;;;;29.75;19.33;;;;;;;21.24;79.73;101743.19;5026928;27;98870;-76
2023/09/27 02:53:52;;;;;;;26.33;18.85;;;;;;;21.13;80.07;101754.63;5029191;27;97049;-74
2023/09/27 02:56:18;;;;;;;24.98;19.17;;;;;;;21.09;80.57;101764.69;5028636;27;96786;-74
2023/09/27 02:58:49;;;;;;;32.60;19.23;;;;;;;21.06;80.40;101772.94;5024413;27;99294;-75
2023/09/27 03:01:15;;;;;;;33.28;18.85;;;;;;;20.90;80.88;101769.47;5027598;27;97707;-75
2023/09/27 03:03:42;;;;;;;29.52;18.33;;;;;;;20.81;81.05;101759.31;5028131;27;98938;-74
2023/09/27 03:06:14;;;;;;;33.38;20.17;;;;;;;21.12;80.39;101757.38;5028275;27;98731;-75
2023/09/27 03:08:42;;;;;;;27.67;19.30;;;;;;;21.33;79.49;101756.06;5027858;27;99946;-74
2023/09/27 03:11:09;;;;;;;33.92;20.77;;;;;;;21.36;79.01;101753.16;5020456;27;98756;-75
2023/09/27 03:13:36;;;;;;;28.30;19.10;;;;;;;21.27;79.26;101753.72;5024072;27;96923;-74
2023/09/27 03:16:04;;;;;;;27.40;18.92;;;;;;;20.78;80.28;101750.59;5012700;27;97105;-73
2023/09/27 03:18:31;;;;;;;30.33;20.08;;;;;;;20.91;80.50;101747.03;5025292;27;98918;-72
2023/09/27 03:20:58;;;;;;;31.08;19.45;;;;;;;20.92;80.63;101742.53;5021430;27;101279;-73
2023/09/27 03:23:26;;;;;;;29.50;20.15;;;;;;;20.79;80.61;101737.06;5026928;27;97242;-73
2023/09/27 03:26:04;;;;;;;29.92;19.42;;;;;;;20.79;80.37;101729.00;5038659;27;96939;-75
2023/09/27 03:28:34;;;;;;;25.83;18.80;;;;;;;20.92;79.78;101719.22;5017499;27;97096;-74
2023/09/27 03:31:00;;;;;;;27.13;19.00;;;;;;;20.91;80.16;101735.44;5012676;27;101166;-72
2023/09/27 03:33:27;;;;;;;35.63;19.60;;;;;;;20.84;80.05;101734.94;5025802;27;97021;-73
2023/09/27 03:35:54;;;;;;;30.90;20.70;;;;;;;20.98;79.13;101734.06;5030352;27;96828;-73
2023/09/27 03:38:20;;;;;;;28.55;20.05;;;;;;;20.90;79.78;101723.81;5034872;27;98914;-73
2023/09/27 03:40:48;;;;;;;32.30;19.60;;;;;;;20.73;80.22;101729.38;5027159;27;99124;-73
2023/09/27 03:43:15;;;;;;;29.95;19.55;;;;;;;20.79;80.02;101723.63;5031023;27;96958;-74
2023/09/27 03:45:42;;;;;;;32.47;20.00;;;;;;;20.80;81.03;101711.94;5033185;27;96870;-74
2023/09/27 03:48:08;;;;;;;35.78;20.13;;;;;;;21.01;79.55;101726.66;5029050;27;99032;-74
2023/09/27 03:50:34;;;;;;;31.88;20.98;;;;;;;20.80;81.23;101740.63;5036272;27;98920;-73
2023/09/27 03:53:01;;;;;;;30.75;21.48;;;;;;;21.02;80.75;101740.97;5028047;27;97071;-73
2023/09/27 03:55:27;;;;;;;29.40;20.27;;;;;;;20.78;81.05;101745.22;5034951;27;97242;-73
2023/09/27 03:57:54;;;;;;;29.23;20.25;;;;;;;20.83;80.39;101745.78;5029078;27;99075;-73
2023/09/27 04:00:21;;;;;;;29.13;20.35;;;;;;;20.64;81.10;101746.06;5026673;27;99091;-74
2023/09/27 04:02:48;;;;;;;36.30;21.73;;;;;;;20.80;81.61;101736.13;5037011;27;97184;-73
2023/09/27 04:05:16;;;;;;;30.17;20.58;;;;;;;20.59;83.35;101735.63;5034779;27;96799;-73
2023/09/27 04:07:43;;;;;;;35.00;20.67;;;;;;;20.76;82.53;101736.38;5031615;27;98913;-73
2023/09/27 04:10:09;;;;;;;35.97;21.13;;;;;;;20.66;83.20;101741.47;5040173;27;97345;-73
2023/09/27 04:12:36;;;;;;;34.60;21.02;;;;;;;20.84;82.18;101747.50;5033093;27;97035;-73
2023/09/27 04:15:08;;;;;;;29.75;21.23;;;;;;;20.99;81.63;101752.78;5029233;27;97139;-73
2023/09/27 04:17:35;;;;;;;32.40;21.13;;;;;;;20.91;81.85;101749.72;5025398;27;97887;-72
2023/09/27 04:20:06;;;;;;;36.03;21.67;;;;;;;20.78;82.76;101751.44;5026828;27;101166;-73
2023/09/27 04:22:32;;;;;;;31.13;20.50;;;;;;;20.81;82.58;101761.13;5023010;27;98259;-73
2023/09/27 04:24:59;;;;;;;34.05;22.90;;;;;;;20.75;82.54;101756.13;5026991;27;98257;-73
2023/09/27 04:27:26;;;;;;;32.83;21.70;;;;;;;20.78;81.71;101764.00;5031118;27;99488;-73
2023/09/27 04:29:53;;;;;;;29.58;20.23;;;;;;;20.83;81.27;101773.50;5026559;27;102161;-74
2023/09/27 04:32:23;;;;;;;35.30;21.42;;;;;;;20.76;81.86;101776.66;5016563;27;97374;-75
2023/09/27 04:34:49;;;;;;;30.75;19.45;;;;;;;20.66;82.02;101781.75;5031540;27;96862;-72
2023/09/27 04:37:16;;;;;;;30.30;19.92;;;;;;;20.54;82.46;101787.88;5030695;27;98971;-75
2023/09/27 04:39:42;;;;;;;32.30;19.42;;;;;;;20.76;81.30;101792.78;5035594;27;97764;-74
2023/09/27 04:42:09;;;;;;;28.40;20.58;;;;;;;20.72;81.60;101786.75;5031907;27;97029;-75
2023/09/27 04:44:35;;;;;;;28.67;19.98;;;;;;;20.72;81.42;101794.81;5035247;27;96953;-74
2023/09/27 04:47:07;;;;;;;27.55;19.17;;;;;;;20.47;81.96;101794.56;5036429;27;98924;-71
2023/09/27 04:49:36;;;;;;;25.83;19.75;;;;;;;20.48;82.13;101799.81;5027960;27;98915;-73
2023/09/27 04:52:02;;;;;;;29.33;19.42;;;;;;;20.76;80.67;101792.78;5030806;27;98866;-73
2023/09/27 04:54:29;;;;;;;25.75;18.45;;;;;;;20.74;80.45;101792.03;5036614;27;97163;-74
2023/09/27 04:56:55;;;;;;;28.73;19.52;;;;;;;20.63;80.87;101793.53;5043431;27;98926;-73
2023/09/27 04:59:22;;;;;;;30.05;18.83;;;;;;;20.72;80.81;101793.94;5036202;27;97930;-74
2023/09/27 05:01:48;;;;;;;35.78;23.73;;;;;;;20.74;80.24;101802.78;5032704;27;97147;-74
2023/09/27 05:04:15;;;;;;;30.67;20.02;;;;;;;20.54;80.83;101803.97;5026366;27;98601;-74
2023/09/27 05:06:43;;;;;;;29.02;19.17;;;;;;;20.62;80.38;101807.03;5028945;27;102010;-77
2023/09/27 05:09:09;;;;;;;28.08;19.95;;;;;;;20.47;81.21;101813.38;5029723;27;98892;-77
2023/09/27 05:11:37;;;;;;;26.80;18.23;;;;;;;20.39;81.69;101818.31;5022603;27;97840;-76
2023/09/27 05:14:05;;;;;;;28.58;19.17;;;;;;;20.50;81.09;101819.41;5026951;27;97384;-77
2023/09/27 05:16:36;;;;;;;26.52;19.42;;;;;;;20.35;81.75;101831.03;5024429;27;98823;-77
2023/09/27 05:19:02;;;;;;;24.30;18.20;;;;;;;20.48;80.86;101826.66;5036326;27;97710;-77
2023/09/27 05:21:29;;;;;;;31.15;19.33;;;;;;;20.19;82.13;101830.19;5033686;27;96877;-76
2023/09/27 05:23:57;;;;;;;26.02;18.33;;;;;;;20.18;82.59;101840.06;5027907;27;98001;-77
2023/09/27 05:26:23;;;;;;;28.92;19.05;;;;;;;20.10;82.80;101842.31;5029431;27;99321;-78
2023/09/27 05:28:49;;;;;;;30.77;19.38;;;;;;;20.50;81.61;101831.97;5039440;27;99084;-78
2023/09/27 05:31:16;;;;;;;34.28;19.70;;;;;;;20.56;80.82;101840.50;5021951;27;97741;-76
2023/09/27 05:33:42;;;;;;;28.23;18.77;;;;;;;20.60;80.12;101844.75;5022191;27;97793;-77
2023/09/27 05:36:08;;;;;;;31.40;19.35;;;;;;;20.71;79.54;101846.78;5033999;27;99397;-77
2023/09/27 05:38:35;;;;;;;30.02;19.35;;;;;;;20.75;79.50;101848.31;5044314;27;101465;-77
2023/09/27 05:41:02;;;;;;;28.05;19.52;;;;;;;20.65;79.88;101845.34;5033098;27;97152;-77
2023/09/27 05:43:29;;;;;;;26.63;18.25;;;;;;;20.55;80.83;101848.66;5036011;27;96710;-76
2023/09/27 05:45:56;;;;;;;26.48;19.25;;;;;;;20.36;81.21;101848.88;5034852;27;99317;-76
2023/09/27 05:48:23;;;;;;;26.73;17.92;;;;;;;20.45;80.75;101858.22;5044002;27;98795;-77
2023/09/27 05:50:50;;;;;;;30.25;19.63;;;;;;;20.65;80.30;101855.22;5034360;27;99074;-77
2023/09/27 05:53:17;;;;;;;30.83;18.73;;;;;;;20.92;79.14;101868.81;5029568;27;97208;-77
2023/09/27 05:55:44;;;;;;;26.35;18.58;;;;;;;20.49;80.26;101866.00;5031745;27;101071;-77
2023/09/27 05:58:11;;;;;;;27.65;19.30;;;;;;;20.60;80.13;101873.44;5030262;27;99909;-77
2023/09/27 06:00:40;;;;;;;31.15;19.30;;;;;;;20.63;80.00;101878.59;5037462;27;96722;-78
2023/09/27 06:03:06;;;;;;;28.23;18.80;;;;;;;20.88;79.16;101884.22;5021050;27;98654;-77
2023/09/27 06:05:33;;;;;;;31.70;19.42;;;;;;;20.73;80.03;101877.13;5028309;27;99256;-74
2023/09/27 06:07:59;;;;;;;27.50;19.33;;;;;;;20.73;80.27;101878.94;5031147;27;99887;-72
2023/09/27 06:10:26;;;;;;;27.40;19.35;;;;;;;21.11;79.32;101887.34;5027250;27;97010;-73
2023/09/27 06:12:52;;;;;;;27.55;18.48;;;;;;;20.99;79.01;101884.47;5023507;27;97672;-73
2023/09/27 06:15:20;;;;;;;34.30;18.00;;;;;;;21.07;78.89;101890.19;5026444;27;98967;-74
2023/09/27 06:17:48;;;;;;;24.40;18.33;;;;;;;21.21;78.50;101888.53;5026745;27;101614;-73
2023/09/27 06:20:20;;;;;;;31.73;19.05;;;;;;;21.38;77.96;101882.97;5024789;27;98888;-72
2023/09/27 06:22:48;;;;;;;33.30;18.75;;;;;;;21.30;78.43;101893.34;5029798;27;96912;-73
2023/09/27 06:25:15;;;;;;;25.13;18.42;;;;;;;21.52;77.44;101884.81;5027691;27;99078;-74
2023/09/27 06:27:41;;;;;;;27.55;16.92;;;;;;;21.78;76.25;101881.31;5023353;27;98825;-73
2023/09/27 06:30:08;;;;;;;28.20;18.70;;;;;;;21.97;75.11;101881.00;5023738;27;100986;-73
2023/09/27 06:32:36;;;;;;;29.60;18.70;;;;;;;22.02;75.21;101884.25;5023996;27;96901;-73
2023/09/27 06:35:12;;;;;;;29.00;18.10;;;;;;;21.86;75.30;101876.28;5024608;27;98984;-73
2023/09/27 06:37:39;;;;;;;32.50;18.08;;;;;;;21.99;74.91;101896.06;5028628;27;101687;-74
2023/09/27 06:40:07;;;;;;;27.10;17.55;;;;;;;21.94;75.50;101891.94;5036365;27;96774;-74
2023/09/27 06:42:34;;;;;;;30.60;16.30;;;;;;;22.43;73.86;101898.53;5029369;27;97312;-72
2023/09/27 06:45:01;;;;;;;24.15;16.67;;;;;;;22.43;73.89;101892.28;5037933;27;99122;-73
2023/09/27 06:47:28;;;;;;;26.95;18.60;;;;;;;22.63;73.34;101891.81;5029071;27;99100;-73
2023/09/27 06:49:56;;;;;;;30.20;17.33;;;;;;;22.55;73.45;101886.06;5030373;27;96750;-73
2023/09/27 06:52:22;;;;;;;22.80;18.52;;;;;;;22.65;73.13;101887.16;5037278;27;96785;-73
2023/09/27 06:54:49;;;;;;;24.40;15.98;;;;;;;22.87;72.20;101889.28;5026526;27;101232;-73
2023/09/27 06:57:15;;;;;;;24.15;16.48;;;;;;;22.98;71.83;101897.50;5029345;27;99056;-74
2023/09/27 06:59:42;;;;;;;23.73;17.58;;;;;;;23.12;71.33;101894.69;5029217;27;97177;-74
2023/09/27 07:02:08;;;;;;;26.13;17.67;;;;;;;23.10;71.64;101891.28;5023802;27;98659;-74
2023/09/27 07:04:36;;;;;;;26.83;18.75;;;;;;;23.02;72.18;101889.09;5021644;27;99375;-74
2023/09/27 07:07:03;;;;;;;29.13;17.88;;;;;;;23.31;71.03;101894.25;5024865;27;99108;-75
2023/09/27 07:09:31;;;;;;;26.10;17.13;;;;;;;22.97;72.57;101887.69;5025985;27;96836;-74
2023/09/27 07:11:57;;;;;;;25.98;17.70;;;;;;;23.33;71.30;101884.25;5017398;27;97625;-74
2023/09/27 07:14:23;;;;;;;34.20;19.92;;;;;;;23.26;71.95;101891.91;5022225;27;99368;-75
2023/09/27 07:16:50;;;;;;;30.98;18.63;;;;;;;23.45;70.66;101886.06;5027976;27;97909;-74
2023/09/27 07:19:17;;;;;;;26.75;19.30;;;;;;;23.02;71.66;101893.63;5021160;28;97638;-74
2023/09/27 07:21:44;;;;;;;26.63;18.88;;;;;;;23.65;70.51;101890.06;5025580;27;96932;-75
2023/09/27 07:24:13;;;;;;;26.20;17.60;;;;;;;23.63;69.75;101890.16;5026436;27;99183;-74
2023/09/27 07:26:41;;;;;;;31.15;17.50;;;;;;;23.75;69.51;101889.28;5026781;27;99330;-74
2023/09/27 07:29:07;;;;;;;23.15;16.95;;;;;;;23.83;69.25;101886.88;5035905;27;96790;-75
2023/09/27 07:31:35;;;;;;;24.20;17.40;;;;;;;24.07;68.56;101872.56;5024971;27;97117;-74
2023/09/27 07:34:01;;;;;;;22.83;18.23;;;;;;;24.37;67.68;101869.41;5023041;27;99265;-74
2023/09/27 07:36:28;;;;;;;23.67;18.20;;;;;;;24.22;67.29;101861.50;5030900;27;98933;-73
2023/09/27 07:38:57;;;;;;;26.33;18.13;;;;;;;24.33;67.05;101859.84;5026333;27;97568;-73
2023/09/27 07:41:26;;;;;;;31.23;17.23;;;;;;;24.37;67.10;101869.41;5031229;27;97560;-73
2023/09/27 07:43:53;;;;;;;27.42;18.10;;;;;;;24.39;67.36;101878.28;5032090;27;97595;-73
2023/09/27 07:46:19;;;;;;;25.08;16.35;;;;;;;24.70;66.31;101883.06;5031117;27;99625;-73
2023/09/27 07:48:46;;;;;;;30.90;17.88;;;;;;;24.82;65.88;101884.81;5024857;27;97901;-73
2023/09/27 07:51:13;;;;;;;30.73;17.98;;;;;;;24.65;66.16;101879.84;5031412;27;96897;-73
2023/09/27 07:53:40;;;;;;;24.15;18.02;;;;;;;25.12;65.32;101884.31;5028876;27;99006;-73
2023/09/27 07:56:09;;;;;;;31.80;19.38;;;;;;;25.15;64.22;101885.88;5027364;27;101313;-73
2023/09/27 07:58:37;;;;;;;26.58;17.98;;;;;;;26.08;61.40;101884.63;5018512;27;98823;-73
2023/09/27 08:01:04;;;;;;;28.58;16.75;;;;;;;25.94;60.60;101868.66;5017415;27;96782;-73
2023/09/27 08:03:31;;;;;;;29.38;16.95;;;;;;;26.00;60.39;101871.72;5013899;27;98967;-74
2023/09/27 08:05:57;;;;;;;34.67;18.10;;;;;;;26.14;59.58;101879.56;5020761;27;98751;-73
2023/09/27 08:08:23;;;;;;;28.23;18.40;;;;;;;26.04;59.63;101875.06;5022707;27;96866;-73
2023/09/27 08:10:51;;;;;;;31.15;18.35;;;;;;;25.96;60.88;101869.41;5019902;27;98628;-73
2023/09/27 08:13:18;;;;;;;33.72;17.20;;;;;;;25.63;61.54;101873.91;5019914;27;99117;-73
2023/09/27 08:15:48;;;;;;;30.55;16.98;;;;;;;26.06;60.48;101873.94;5026373;27;102145;-76
2023/09/27 08:18:16;;;;;;;29.65;17.90;;;;;;;25.97;60.43;101871.13;5025345;27;97808;-74
2023/09/27 08:20:42;;;;;;;28.02;17.88;;;;;;;26.17;60.33;101883.88;5025388;27;98364;-73
2023/09/27 08:23:09;;;;;;;22.65;17.20;;;;;;;26.53;58.33;101869.97;5025532;27;99298;-73
2023/09/27 08:28:21;;;;;;;24.23;17.20;;;;;;;26.29;59.73;101877.47;5018999;27;97664;-74
2023/09/27 08:30:48;;;;;;;24.52;16.10;;;;;;;26.57;58.57;101882.28;5024662;27;97330;-73
2023/09/27 08:33:15;;;;;;;24.20;16.27;;;;;;;26.84;57.70;101880.91;5030440;27;100959;-75
2023/09/27 08:35:41;;;;;;;22.63;14.55;;;;;;;26.68;57.38;101878.66;5023764;27;99436;-74
2023/09/27 08:38:08;;;;;;;24.02;14.70;;;;;;;26.83;57.10;101877.34;5029350;27;97287;-74
2023/09/27 08:40:35;;;;;;;25.52;14.30;;;;;;;26.80;56.18;101883.03;5032544;27;96987;-75
2023/09/27 08:43:01;;;;;;;27.17;15.40;;;;;;;26.91;56.65;101880.25;5032708;27;99016;-75
2023/09/27 08:45:29;;;;;;;24.00;13.27;;;;;;;27.23;55.11;101882.91;5026713;27;98571;-73
2023/09/27 08:47:57;;;;;;;15.27;10.60;;;;;;;27.09;53.11;101883.25;5026631;27;97184;-74
2023/09/27 08:50:26;;;;;;;22.08;13.10;;;;;;;27.09;53.60;101874.25;5031278;27;96912;-74
2023/09/27 08:52:53;;;;;;;17.65;12.80;;;;;;;26.98;53.75;101877.88;5035514;27;99310;-74
2023/09/27 08:55:20;;;;;;;19.40;13.00;;;;;;;27.49;52.67;101879.75;5031545;27;98799;-74
2023/09/27 08:57:48;;;;;;;21.77;13.10;;;;;;;27.57;52.75;101877.25;5026421;27;97319;-74
2023/09/27 09:00:16;;;;;;;24.35;12.95;;;;;;;27.15;53.37;101873.72;5029850;27;97549;-72
2023/09/27 09:02:47;;;;;;;16.38;10.70;;;;;;;27.46;52.83;101874.56;5025312;27;99109;-73
2023/09/27 09:05:15;;;;;;;21.50;11.85;;;;;;;27.64;51.31;101872.94;5028505;27;98679;-73
2023/09/27 09:07:42;;;;;;;18.13;10.88;;;;;;;27.62;50.54;101872.25;5024442;27;97081;-74
2023/09/27 09:10:14;;;;;;;20.02;10.25;;;;;;;27.79;50.18;101877.00;5022576;27;98764;-73
2023/09/27 09:12:41;;;;;;;20.55;11.55;;;;;;;27.65;50.91;101869.25;5030461;27;99128;-72
2023/09/27 09:15:14;;;;;;;17.83;11.18;;;;;;;27.76;50.54;101880.84;5024416;27;99246;-73
2023/09/27 09:17:42;;;;;;;15.63;10.57;;;;;;;27.54;50.82;101874.78;5020046;27;97714;-74
2023/09/27 09:20:15;;;;;;;20.20;10.25;;;;;;;27.89;50.06;101872.47;5025486;27;97154;-74
2023/09/27 09:22:44;;;;;;;19.70;10.27;;;;;;;27.97;49.92;101869.03;5026128;27;99716;-71
2023/09/27 09:25:10;;;;;;;15.27;9.88;;;;;;;27.83;50.18;101870.28;5022675;27;99172;-72
2023/09/27 09:27:37;;;;;;;18.77;10.57;;;;;;;27.92;50.15;101863.19;5021800;27;97174;-73
2023/09/27 09:30:06;;;;;;;16.13;9.48;;;;;;;28.25;49.40;101851.09;5031095;27;97061;-73
2023/09/27 09:32:33;;;;;;;17.25;9.55;;;;;;;28.20;48.83;101856.09;5031192;27;99470;-72
2023/09/27 09:35:00;;;;;;;19.17;9.57;;;;;;;28.34;48.90;101850.25;5026889;27;99624;-74
2023/09/27 09:37:29;;;;;;;24.23;11.15;;;;;;;28.61;48.28;101853.09;5024818;27;99215;-73
2023/09/27 09:40:14;;;;;;;21.52;9.90;;;;;;;28.20;48.83;101850.69;5026196;27;97618;-73
2023/09/27 09:42:42;;;;;;;17.80;11.15;;;;;;;28.44;48.59;101842.94;5022966;27;99051;-73
2023/09/27 09:45:12;;;;;;;16.98;8.45;;;;;;;28.48;48.30;101838.94;5028297;27;99137;-74
2023/09/27 09:47:39;;;;;;;17.80;7.95;;;;;;;28.22;48.36;101833.25;5026346;27;96918;-74
2023/09/27 09:50:16;;;;;;;12.88;7.78;;;;;;;28.13;48.12;101832.19;5027319;27;97945;-74
2023/09/27 09:52:48;;;;;;;15.77;7.88;;;;;;;28.36;47.88;101838.22;5026222;27;98765;-73
2023/09/27 09:55:20;;;;;;;16.25;7.82;;;;;;;28.54;46.45;101833.78;5021799;27;98809;-74
2023/09/27 09:57:47;;;;;;;18.10;9.18;;;;;;;28.76;46.46;101834.50;5024307;27;97516;-67
2023/09/27 10:00:16;;;;;;;23.80;7.50;;;;;;;28.26;47.04;101829.22;5023218;27;97395;-67
2023/09/27 10:02:49;;;;;;;15.32;7.70;;;;;;;28.52;46.03;101822.19;5022063;27;99229;-67
2023/09/27 10:05:17;;;;;;;17.58;6.78;;;;;;;28.55;46.49;101827.31;5022030;28;101119;-68
2023/09/27 10:07:45;;;;;;;10.40;6.78;;;;;;;28.54;46.38;101825.63;5021007;27;96795;-68
2023/09/27 10:10:13;;;;;;;12.50;7.03;;;;;;;28.38;46.17;101816.34;5026440;27;100423;-68
2023/09/27 10:12:42;;;;;;;15.10;7.03;;;;;;;28.27;46.76;101811.06;5022307;27;99517;-68
2023/09/27 10:15:10;;;;;;;17.60;6.95;;;;;;;28.83;46.25;101811.13;5022434;27;98709;-67
2023/09/27 10:17:36;;;;;;;15.45;7.25;;;;;;;28.67;45.89;101814.47;5022977;27;97006;-68
2023/09/27 10:20:12;;;;;;;21.42;12.90;;;;;;;28.61;46.01;101808.75;5024282;27;97356;-68
2023/09/27 10:22:40;;;;;;;13.10;6.95;;;;;;;28.52;45.61;101805.03;5019438;27;99689;-67
2023/09/27 10:25:36;;;;;;;17.58;9.27;;;;;;;28.53;45.17;101801.31;5024028;27;101719;-68
2023/09/27 10:28:12;;;;;;;12.23;6.82;;;;;;;28.65;45.94;101800.13;5019449;27;97373;-67
2023/09/27 10:31:12;;;;;;;9.27;5.63;;;;;;;28.55;45.45;101799.31;5019455;27;99886;-68
2023/09/27 10:33:39;;;;;;;12.07;5.60;;;;;;;28.19;46.51;101797.31;5017656;27;98867;-68
2023/09/27 10:36:29;;;;;;;11.27;5.40;;;;;;;28.35;46.01;101795.75;5026604;27;98720;-68
2023/09/27 10:39:05;;;;;;;11.27;5.15;;;;;;;28.41;46.45;101797.03;5021878;27;96917;-67
2023/09/27 10:41:44;;;;;;;12.15;5.50;;;;;;;28.14;46.67;101800.47;5028486;27;96882;-68
2023/09/27 10:44:12;;;;;;;9.82;5.32;;;;;;;28.18;46.92;101791.03;5023187;27;99006;-68
2023/09/27 10:46:42;;;;;;;10.60;5.72;;;;;;;28.29;46.65;101781.88;5015234;27;99533;-67
2023/09/27 10:49:09;;;;;;;12.68;5.50;;;;;;;28.73;45.52;101783.09;5015535;27;97237;-71
2023/09/27 10:51:35;;;;;;;16.65;5.97;;;;;;;28.86;45.94;101780.94;5026008;27;99367;-72
2023/09/27 10:54:06;;;;;;;16.63;5.72;;;;;;;28.85;44.77;101785.53;5014821;27;99200;-70
2023/09/27 10:56:32;;;;;;;9.10;5.35;;;;;;;28.69;44.76;101776.22;5022514;27;101065;-70
2023/09/27 10:58:59;;;;;;;5.75;4.68;;;;;;;28.37;46.02;101779.28;5023684;27;96857;-68
2023/09/27 11:01:27;;;;;;;9.13;5.78;;;;;;;28.37;45.71;101777.41;5023616;27;97669;-71
2023/09/27 11:03:58;;;;;;;13.20;5.18;;;;;;;28.68;45.30;101777.25;5026783;27;102928;-69
2023/09/27 11:06:24;;;;;;;12.77;5.22;;;;;;;28.85;45.14;101779.22;5024175;27;101483;-71
2023/09/27 11:08:51;;;;;;;17.20;5.10;;;;;;;28.76;44.54;101759.19;5023718;27;97057;-71
2023/09/27 11:11:17;;;;;;;9.68;4.60;;;;;;;28.80;44.10;101766.06;5026908;27;97718;-72
2023/09/27 11:13:44;;;;;;;14.50;5.10;;;;;;;28.69;44.50;101757.19;5023433;27;98903;-69
2023/09/27 11:16:13;;;;;;;11.02;4.80;;;;;;;28.82;44.40;101757.75;5026830;27;99100;-70